createdAt,value
2023-08-19T00:00:27.844Z,26.19
2023-08-19T00:02:57.447Z,26.12
2023-08-19T00:05:25.413Z,26.13
2023-08-19T00:07:52.849Z,26.17
2023-08-19T00:10:20.165Z,26.16
2023-08-19T00:12:47.535Z,26.12
2023-08-19T00:15:14.930Z,26.15
2023-08-19T00:17:42.541Z,26.09
2023-08-19T00:20:12.065Z,26.21
2023-08-19T00:22:39.492Z,26.27
2023-08-19T00:25:07.070Z,26.35
2023-08-19T00:27:34.490Z,26.33
2023-08-19T00:30:02.034Z,26.18
2023-08-19T00:32:31.189Z,26.22
2023-08-19T00:34:58.566Z,26.32
2023-08-19T00:37:25.873Z,26.28
2023-08-19T00:39:53.862Z,26.21
2023-08-19T00:42:21.192Z,26.38
2023-08-19T00:44:48.659Z,26.20
2023-08-19T00:47:16.089Z,26.02
2023-08-19T00:49:43.691Z,26.05
2023-08-19T00:52:11.141Z,25.96
2023-08-19T00:54:38.588Z,25.97
2023-08-19T00:57:07.065Z,25.84
2023-08-19T00:59:34.397Z,25.83
2023-08-19T01:02:02.201Z,25.89
2023-08-19T01:04:29.631Z,25.92
2023-08-19T01:07:14.072Z,25.95
2023-08-19T01:09:43.589Z,25.96
2023-08-19T01:12:18.827Z,26.00
2023-08-19T01:15:05.631Z,26.05
2023-08-19T01:17:33.479Z,25.94
2023-08-19T01:20:01.615Z,25.96
2023-08-19T01:22:57.520Z,25.97
2023-08-19T01:25:25.654Z,25.92
2023-08-19T01:27:55.006Z,25.84
2023-08-19T01:30:22.448Z,25.80
2023-08-19T01:32:49.834Z,25.81
2023-08-19T01:35:18.575Z,25.86
2023-08-19T01:37:57.255Z,25.82
2023-08-19T01:40:24.859Z,25.78
2023-08-19T01:42:52.259Z,25.85
2023-08-19T01:45:19.609Z,25.74
2023-08-19T01:47:47.081Z,25.65
2023-08-19T01:50:14.441Z,25.79
2023-08-19T01:52:41.966Z,25.84
2023-08-19T01:55:10.362Z,25.94
2023-08-19T01:57:37.997Z,25.88
2023-08-19T02:00:08.305Z,25.93
2023-08-19T02:02:44.620Z,25.77
2023-08-19T02:05:15.959Z,25.71
2023-08-19T02:07:44.102Z,25.63
2023-08-19T02:10:13.400Z,25.55
2023-08-19T02:12:40.885Z,25.51
2023-08-19T02:15:08.861Z,25.32
2023-08-19T02:17:36.355Z,25.38
2023-08-19T02:20:04.626Z,25.30
2023-08-19T02:22:32.055Z,25.31
2023-08-19T02:24:59.544Z,25.32
2023-08-19T02:27:27.165Z,25.34
2023-08-19T02:29:55.200Z,25.29
2023-08-19T02:32:23.296Z,25.30
2023-08-19T02:34:51.551Z,25.30
2023-08-19T02:37:18.995Z,25.33
2023-08-19T02:39:46.444Z,25.31
2023-08-19T02:42:17.532Z,25.28
2023-08-19T02:44:45.089Z,25.28
2023-08-19T02:47:12.436Z,25.24
2023-08-19T02:51:54.712Z,23.67
2023-08-19T02:54:22.089Z,24.21
2023-08-19T02:56:49.655Z,24.02
2023-08-19T02:59:17.147Z,23.99
2023-08-19T03:01:44.481Z,24.05
2023-08-19T03:04:11.885Z,24.07
2023-08-19T03:06:39.731Z,24.21
2023-08-19T03:09:07.050Z,24.27
2023-08-19T03:11:34.621Z,24.30
2023-08-19T03:14:02.268Z,24.38
2023-08-19T03:16:30.097Z,24.43
2023-08-19T03:18:57.442Z,24.43
2023-08-19T03:21:24.846Z,24.52
2023-08-19T03:23:52.309Z,24.64
2023-08-19T03:26:20.155Z,24.86
2023-08-19T03:28:48.035Z,25.05
2023-08-19T03:31:16.152Z,25.31
2023-08-19T03:33:43.619Z,25.66
2023-08-19T03:36:11.939Z,26.00
2023-08-19T03:38:39.594Z,26.28
2023-08-19T03:41:07.050Z,26.48
2023-08-19T03:43:35.092Z,26.79
2023-08-19T03:46:02.604Z,27.16
2023-08-19T03:48:30.059Z,27.58
2023-08-19T03:50:57.420Z,27.92
2023-08-19T03:53:25.058Z,28.16
2023-08-19T03:55:52.745Z,28.41
2023-08-19T03:58:20.145Z,28.70
2023-08-19T04:00:48.989Z,29.05
2023-08-19T04:03:20.897Z,29.41
2023-08-19T04:05:48.250Z,29.68
2023-08-19T04:08:15.641Z,30.09
2023-08-19T04:10:42.998Z,30.34
2023-08-19T04:13:10.964Z,30.56
2023-08-19T04:15:38.352Z,30.80
2023-08-19T04:18:06.447Z,31.16
2023-08-19T04:20:38.480Z,31.79
2023-08-19T04:23:06.724Z,32.07
2023-08-19T04:25:34.103Z,32.21
2023-08-19T04:28:02.329Z,32.59
2023-08-19T04:30:29.945Z,32.78
2023-08-19T04:32:59.847Z,33.18
2023-08-19T04:35:31.338Z,33.39
2023-08-19T04:37:58.959Z,33.62
2023-08-19T04:40:26.711Z,34.11
2023-08-19T04:42:54.185Z,34.36
2023-08-19T04:45:22.272Z,34.45
2023-08-19T04:47:50.760Z,34.68
2023-08-19T04:50:18.521Z,35.02
2023-08-19T04:52:45.862Z,35.32
2023-08-19T04:55:16.174Z,35.83
2023-08-19T04:57:43.688Z,36.02
2023-08-19T05:00:13.598Z,36.01
2023-08-19T05:02:42.285Z,35.90
2023-08-19T05:05:09.675Z,35.86
2023-08-19T05:07:37.731Z,35.89
2023-08-19T05:10:05.434Z,35.93
2023-08-19T05:12:32.961Z,35.99
2023-08-19T05:15:00.814Z,36.05
2023-08-19T05:17:28.962Z,36.00
2023-08-19T05:19:56.753Z,35.97
2023-08-19T05:22:24.367Z,36.05
2023-08-19T05:24:51.750Z,36.09
2023-08-19T05:27:19.167Z,36.30
2023-08-19T05:29:46.641Z,36.46
2023-08-19T05:32:13.969Z,36.71
2023-08-19T05:34:43.442Z,37.02
2023-08-19T05:37:11.103Z,37.37
2023-08-19T05:39:38.512Z,37.64
2023-08-19T05:42:06.013Z,38.21
2023-08-19T05:44:33.405Z,38.65
2023-08-19T05:47:00.699Z,38.93
2023-08-19T05:49:28.822Z,38.91
2023-08-19T05:51:56.541Z,38.78
2023-08-19T05:54:23.832Z,38.87
2023-08-19T05:56:51.179Z,39.24
2023-08-19T05:59:18.636Z,39.43
2023-08-19T06:01:45.999Z,39.55
2023-08-19T06:04:13.562Z,39.85
2023-08-19T06:06:40.965Z,39.95
2023-08-19T06:09:08.914Z,40.06
2023-08-19T06:11:47.462Z,40.37
2023-08-19T06:14:15.182Z,40.38
2023-08-19T06:16:43.255Z,40.99
2023-08-19T06:19:13.520Z,41.47
2023-08-19T06:21:41.422Z,41.24
2023-08-19T06:24:09.139Z,41.58
2023-08-19T06:26:36.824Z,41.53
2023-08-19T06:29:04.490Z,41.52
2023-08-19T06:31:32.674Z,41.71
2023-08-19T06:34:00.296Z,41.91
2023-08-19T06:36:29.950Z,41.92
2023-08-19T06:39:30.251Z,42.20
2023-08-19T06:42:03.022Z,42.25
2023-08-19T06:44:33.959Z,42.18
2023-08-19T06:47:03.092Z,42.10
2023-08-19T06:49:30.728Z,42.23
2023-08-19T06:51:58.503Z,42.39
2023-08-19T06:54:26.092Z,42.62
2023-08-19T06:57:11.063Z,43.03
2023-08-19T06:59:39.810Z,44.15
2023-08-19T07:02:09.032Z,44.26
2023-08-19T07:04:37.280Z,44.48
2023-08-19T07:07:05.736Z,44.50
2023-08-19T07:09:35.050Z,44.45
2023-08-19T07:12:03.642Z,44.40
2023-08-19T07:14:31.535Z,44.32
2023-08-19T07:17:04.155Z,44.30
2023-08-19T07:19:33.663Z,43.88
2023-08-19T07:22:01.535Z,43.67
2023-08-19T07:24:28.853Z,43.77
2023-08-19T07:26:56.307Z,43.38
2023-08-19T07:29:24.098Z,43.06
2023-08-19T07:31:51.479Z,43.53
2023-08-19T07:34:18.958Z,44.03
2023-08-19T07:36:46.322Z,44.41
2023-08-19T07:39:15.004Z,44.77
2023-08-19T07:41:42.343Z,44.68
2023-08-19T07:44:09.791Z,44.63
2023-08-19T07:46:37.180Z,44.63
2023-08-19T07:49:04.606Z,44.63
2023-08-19T07:51:32.017Z,44.48
2023-08-19T07:53:59.445Z,44.28
2023-08-19T07:56:26.919Z,44.29
2023-08-19T07:58:54.449Z,44.39
2023-08-19T08:01:21.867Z,44.31
2023-08-19T08:03:49.858Z,44.51
2023-08-19T08:06:17.312Z,44.74
2023-08-19T08:08:44.728Z,45.14
2023-08-19T08:11:12.107Z,45.49
2023-08-19T08:13:39.756Z,45.24
2023-08-19T08:16:07.175Z,45.26
2023-08-19T08:18:35.008Z,45.39
2023-08-19T08:21:03.387Z,45.24
2023-08-19T08:23:32.905Z,45.31
2023-08-19T08:26:05.564Z,44.84
2023-08-19T08:28:33.035Z,44.34
2023-08-19T08:31:00.422Z,44.06
2023-08-19T08:33:27.796Z,44.23
2023-08-19T08:35:55.278Z,44.56
2023-08-19T08:38:23.233Z,44.58
2023-08-19T08:40:51.434Z,44.78
2023-08-19T08:43:20.958Z,45.15
2023-08-19T08:45:48.353Z,44.96
2023-08-19T08:48:17.660Z,45.27
2023-08-19T08:50:45.249Z,45.47
2023-08-19T08:53:13.976Z,45.51
2023-08-19T08:55:41.588Z,45.94
2023-08-19T08:58:09.032Z,46.29
2023-08-19T09:00:39.158Z,46.60
2023-08-19T09:03:06.851Z,46.41
2023-08-19T09:05:34.941Z,45.86
2023-08-19T09:08:02.399Z,45.55
2023-08-19T09:10:29.940Z,45.06
2023-08-19T09:12:59.045Z,44.81
2023-08-19T09:15:29.902Z,44.97
2023-08-19T09:17:58.661Z,45.05
2023-08-19T09:20:26.839Z,45.19
2023-08-19T09:23:09.075Z,45.20
2023-08-19T09:25:39.233Z,44.85
2023-08-19T09:28:07.328Z,44.86
2023-08-19T09:30:36.386Z,44.36
2023-08-19T09:33:04.094Z,43.80
2023-08-19T09:35:57.192Z,43.56
2023-08-19T09:38:26.314Z,43.76
2023-08-19T09:41:08.135Z,44.10
2023-08-19T09:43:41.797Z,44.23
2023-08-19T09:46:09.857Z,44.17
2023-08-19T09:48:37.611Z,44.45
2023-08-19T09:51:05.130Z,44.50
2023-08-19T09:53:32.601Z,43.86
2023-08-19T09:55:59.993Z,43.76
2023-08-19T09:58:27.439Z,43.72
2023-08-19T10:00:54.857Z,43.93
2023-08-19T10:03:22.312Z,44.11
2023-08-19T10:05:55.745Z,43.90
2023-08-19T10:08:24.600Z,43.30
2023-08-19T10:10:52.082Z,43.04
2023-08-19T10:13:19.404Z,43.08
2023-08-19T10:15:47.888Z,43.04
2023-08-19T10:18:18.308Z,43.17
2023-08-19T10:20:47.099Z,43.21
2023-08-19T10:23:14.552Z,43.11
2023-08-19T10:25:42.670Z,42.76
2023-08-19T10:28:14.675Z,42.68
2023-08-19T10:30:42.245Z,42.72
2023-08-19T10:33:30.276Z,42.75
2023-08-19T10:36:03.398Z,42.44
2023-08-19T10:38:45.212Z,42.04
2023-08-19T10:41:37.246Z,42.08
2023-08-19T10:44:05.413Z,42.21
2023-08-19T10:46:39.491Z,42.18
2023-08-19T10:49:15.727Z,42.35
2023-08-19T10:52:01.932Z,42.72
2023-08-19T10:54:40.078Z,43.02
2023-08-19T10:57:24.944Z,42.96
2023-08-19T11:00:00.304Z,42.76
2023-08-19T11:02:28.864Z,42.68
2023-08-19T11:04:58.712Z,42.85
2023-08-19T11:07:26.585Z,43.18
2023-08-19T11:09:55.470Z,43.09
2023-08-19T11:12:23.895Z,43.03
2023-08-19T11:14:56.614Z,42.81
2023-08-19T11:17:28.479Z,42.39
2023-08-19T11:19:56.969Z,42.08
2023-08-19T11:22:24.663Z,42.34
2023-08-19T11:24:52.614Z,42.52
2023-08-19T11:27:20.254Z,42.42
2023-08-19T11:29:48.476Z,42.51
2023-08-19T11:32:20.830Z,42.64
2023-08-19T11:34:48.460Z,42.78
2023-08-19T11:37:17.331Z,42.47
2023-08-19T11:39:46.062Z,42.69
2023-08-19T11:42:13.409Z,43.12
2023-08-19T11:44:44.573Z,43.06
2023-08-19T11:47:15.137Z,42.94
2023-08-19T11:49:46.012Z,42.85
2023-08-19T11:52:20.458Z,42.49
2023-08-19T11:55:01.328Z,42.24
2023-08-19T11:57:35.609Z,42.22
2023-08-19T12:00:06.303Z,42.36
2023-08-19T12:02:40.033Z,42.67
2023-08-19T12:05:08.224Z,42.85
2023-08-19T12:07:36.266Z,42.94
2023-08-19T12:10:05.349Z,43.14
2023-08-19T12:12:33.507Z,42.98
2023-08-19T12:15:02.253Z,42.75
2023-08-19T12:17:31.123Z,42.37
2023-08-19T12:19:58.520Z,42.23
2023-08-19T12:22:25.884Z,42.19
2023-08-19T12:24:53.281Z,42.32
2023-08-19T12:27:20.646Z,42.57
2023-08-19T12:29:49.930Z,42.83
2023-08-19T12:32:17.402Z,42.79
2023-08-19T12:34:44.731Z,42.64
2023-08-19T12:37:12.057Z,42.68
2023-08-19T12:39:39.491Z,42.74
2023-08-19T12:42:07.152Z,42.72
2023-08-19T12:44:34.639Z,42.73
2023-08-19T12:47:01.982Z,42.84
2023-08-19T12:49:29.341Z,42.87
2023-08-19T12:51:57.578Z,43.03
2023-08-19T12:54:25.101Z,43.00
2023-08-19T12:56:52.506Z,42.68
2023-08-19T12:59:19.885Z,42.40
2023-08-19T13:01:48.608Z,42.15
2023-08-19T13:04:15.991Z,42.17
2023-08-19T13:06:47.475Z,42.42
2023-08-19T13:09:15.086Z,42.33
2023-08-19T13:11:42.413Z,42.12
2023-08-19T13:14:09.748Z,41.94
2023-08-19T13:16:37.224Z,42.26
2023-08-19T13:19:04.978Z,42.19
2023-08-19T13:21:32.496Z,41.83
2023-08-19T13:23:59.891Z,41.91
2023-08-19T13:26:28.213Z,41.88
2023-08-19T13:28:55.527Z,41.87
2023-08-19T13:31:24.005Z,41.56
2023-08-19T13:33:51.550Z,41.59
2023-08-19T13:36:18.851Z,41.43
2023-08-19T13:38:46.179Z,41.42
2023-08-19T13:41:13.776Z,41.48
2023-08-19T13:43:42.227Z,41.35
2023-08-19T13:46:09.618Z,41.32
2023-08-19T13:48:37.031Z,41.31
2023-08-19T13:51:04.688Z,41.15
2023-08-19T13:53:32.290Z,41.15
2023-08-19T13:55:59.749Z,41.03
2023-08-19T13:58:27.061Z,40.77
2023-08-19T14:00:54.412Z,40.60
2023-08-19T14:03:22.404Z,40.56
2023-08-19T14:05:50.006Z,40.50
2023-08-19T14:08:17.506Z,40.62
2023-08-19T14:10:48.806Z,40.65
2023-08-19T14:13:16.167Z,40.50
2023-08-19T14:15:43.475Z,40.42
2023-08-19T14:18:10.892Z,40.43
2023-08-19T14:20:38.502Z,40.33
2023-08-19T14:23:05.827Z,40.37
2023-08-19T14:25:33.124Z,40.27
2023-08-19T14:28:00.462Z,40.46
2023-08-19T14:30:27.964Z,40.43
2023-08-19T14:32:55.297Z,40.51
2023-08-19T14:35:22.748Z,40.22
2023-08-19T14:37:50.228Z,39.98
2023-08-19T14:40:20.606Z,39.85
2023-08-19T14:42:48.564Z,39.83
2023-08-19T14:45:16.648Z,39.89
2023-08-19T14:47:44.057Z,39.74
2023-08-19T14:50:11.511Z,39.79
2023-08-19T14:52:39.135Z,39.72
2023-08-19T14:55:09.112Z,39.61
2023-08-19T14:57:38.662Z,39.70
2023-08-19T15:00:12.264Z,39.92
2023-08-19T15:02:48.077Z,39.87
2023-08-19T15:05:15.838Z,39.98
2023-08-19T15:09:36.481Z,38.31
2023-08-19T15:12:05.068Z,39.26
2023-08-19T15:14:32.460Z,39.34
2023-08-19T15:16:59.799Z,39.41
2023-08-19T15:19:27.164Z,39.38
2023-08-19T15:21:54.986Z,39.08
2023-08-19T15:24:22.303Z,38.90
2023-08-19T15:26:49.666Z,38.87
2023-08-19T15:29:17.194Z,39.02
2023-08-19T15:31:44.632Z,39.00
2023-08-19T15:34:11.969Z,38.98
2023-08-19T15:36:39.319Z,39.05
2023-08-19T15:39:06.692Z,39.10
2023-08-19T15:41:34.098Z,39.07
2023-08-19T15:44:01.847Z,39.16
2023-08-19T15:46:29.319Z,39.13
2023-08-19T15:48:56.649Z,38.97
2023-08-19T15:51:23.981Z,38.76
2023-08-19T15:53:52.420Z,38.68
2023-08-19T15:56:20.657Z,38.53
2023-08-19T15:58:51.521Z,38.54
2023-08-19T16:01:18.921Z,38.46
2023-08-19T16:03:46.230Z,38.47
2023-08-19T16:06:13.670Z,38.44
2023-08-19T16:08:41.122Z,38.42
2023-08-19T16:11:09.158Z,38.39
2023-08-19T16:13:36.487Z,38.38
2023-08-19T16:16:03.988Z,38.37
2023-08-19T16:18:32.004Z,38.41
2023-08-19T16:20:59.842Z,38.15
2023-08-19T16:23:28.034Z,37.96
2023-08-19T16:25:55.391Z,37.96
2023-08-19T16:28:22.751Z,37.85
2023-08-19T16:30:50.122Z,37.93
2023-08-19T16:33:17.454Z,38.05
2023-08-19T16:35:45.642Z,37.96
2023-08-19T16:38:12.982Z,37.87
2023-08-19T16:40:40.412Z,37.80
2023-08-19T16:43:09.767Z,37.61
2023-08-19T16:45:37.109Z,37.62
2023-08-19T16:48:04.988Z,37.34
2023-08-19T16:50:32.423Z,37.21
2023-08-19T16:52:59.728Z,37.21
2023-08-19T16:55:27.132Z,37.08
2023-08-19T16:57:54.502Z,37.17
2023-08-19T17:00:24.010Z,37.02
2023-08-19T17:02:51.489Z,36.84
2023-08-19T17:05:19.223Z,36.81
2023-08-19T17:07:46.791Z,36.36
2023-08-19T17:10:14.082Z,35.98
2023-08-19T17:12:41.399Z,35.81
2023-08-19T17:15:08.918Z,35.84
2023-08-19T17:17:36.602Z,35.36
2023-08-19T17:20:07.670Z,35.09
2023-08-19T17:22:38.583Z,35.05
2023-08-19T17:25:06.272Z,35.22
2023-08-19T17:27:33.785Z,35.12
2023-08-19T17:30:01.312Z,35.07
2023-08-19T17:32:28.782Z,34.85
2023-08-19T17:34:56.067Z,34.65
2023-08-19T17:37:23.395Z,34.70
2023-08-19T17:39:50.947Z,34.59
2023-08-19T17:42:19.393Z,34.32
2023-08-19T17:44:54.371Z,34.11
2023-08-19T17:47:21.898Z,34.05
2023-08-19T17:49:49.233Z,34.01
2023-08-19T17:52:16.556Z,34.04
2023-08-19T17:54:43.968Z,33.98
2023-08-19T17:57:13.428Z,33.84
2023-08-19T17:59:40.768Z,34.01
2023-08-19T18:02:08.310Z,33.88
2023-08-19T18:04:35.771Z,33.80
2023-08-19T18:07:03.524Z,33.21
2023-08-19T18:09:30.929Z,32.74
2023-08-19T18:12:01.069Z,32.66
2023-08-19T18:14:28.381Z,32.46
2023-08-19T18:16:56.402Z,32.47
2023-08-19T18:19:34.687Z,32.37
2023-08-19T18:22:03.612Z,32.14
2023-08-19T18:24:31.760Z,32.01
2023-08-19T18:27:00.035Z,32.10
2023-08-19T18:29:27.803Z,32.04
2023-08-19T18:31:57.219Z,31.95
2023-08-19T18:34:24.949Z,31.93
2023-08-19T18:36:52.257Z,31.89
2023-08-19T18:39:19.670Z,31.81
2023-08-19T18:41:47.131Z,32.08
2023-08-19T18:44:14.502Z,32.03
2023-08-19T18:46:41.974Z,32.00
2023-08-19T18:49:09.350Z,31.94
2023-08-19T18:51:36.805Z,31.89
2023-08-19T18:54:04.575Z,31.86
2023-08-19T18:56:31.921Z,32.06
2023-08-19T18:59:00.149Z,32.34
2023-08-19T19:01:27.693Z,32.32
2023-08-19T19:03:56.976Z,32.07
2023-08-19T19:06:25.749Z,32.31
2023-08-19T19:08:54.976Z,32.29
2023-08-19T19:11:24.152Z,32.00
2023-08-19T19:13:51.456Z,31.66
2023-08-19T19:16:18.762Z,31.62
2023-08-19T19:18:46.213Z,31.48
2023-08-19T19:21:13.672Z,31.38
2023-08-19T19:23:41.022Z,31.09
2023-08-19T19:26:08.427Z,31.49
2023-08-19T19:28:36.120Z,31.57
2023-08-19T19:31:06.210Z,31.28
2023-08-19T19:33:34.942Z,30.98
2023-08-19T19:36:02.326Z,30.73
2023-08-19T19:38:29.736Z,30.65
2023-08-19T19:40:59.282Z,30.54
2023-08-19T19:43:26.577Z,30.56
2023-08-19T19:45:54.419Z,30.83
2023-08-19T19:48:21.859Z,30.90
2023-08-19T19:50:49.380Z,30.73
2023-08-19T19:53:16.721Z,30.44
2023-08-19T19:55:45.650Z,29.89
2023-08-19T19:58:14.014Z,29.71
2023-08-19T20:00:41.461Z,29.51
2023-08-19T20:03:09.136Z,29.50
2023-08-19T20:05:36.626Z,29.54
2023-08-19T20:08:04.161Z,29.51
2023-08-19T20:10:31.511Z,29.68
2023-08-19T20:12:58.847Z,29.49
2023-08-19T20:15:29.842Z,29.21
2023-08-19T20:17:57.931Z,29.24
2023-08-19T20:20:25.482Z,29.10
2023-08-19T20:22:53.020Z,29.08
2023-08-19T20:25:20.443Z,28.90
2023-08-19T20:27:47.835Z,28.75
2023-08-19T20:30:15.280Z,28.91
2023-08-19T20:32:42.707Z,28.97
2023-08-19T20:35:12.469Z,29.06
2023-08-19T20:37:40.049Z,29.02
2023-08-19T20:40:08.402Z,29.03
2023-08-19T20:42:35.757Z,28.99
2023-08-19T20:45:03.230Z,28.98
2023-08-19T20:47:30.878Z,28.97
2023-08-19T20:49:58.283Z,28.94
2023-08-19T20:52:25.669Z,28.69
2023-08-19T20:54:53.028Z,28.42
2023-08-19T20:57:20.849Z,28.80
2023-08-19T20:59:48.143Z,28.69
2023-08-19T21:02:15.470Z,28.45
2023-08-19T21:04:42.788Z,28.20
2023-08-19T21:07:12.294Z,28.01
2023-08-19T21:09:39.884Z,28.26
2023-08-19T21:12:07.423Z,28.46
2023-08-19T21:14:34.782Z,28.58
2023-08-19T21:17:03.867Z,28.42
2023-08-19T21:19:31.188Z,28.45
2023-08-19T21:21:58.895Z,28.26
2023-08-19T21:24:26.231Z,28.14
2023-08-19T21:26:53.678Z,28.16
2023-08-19T21:29:20.984Z,28.05
2023-08-19T21:31:48.314Z,28.27
2023-08-19T21:34:15.728Z,28.29
2023-08-19T21:36:43.055Z,28.20
2023-08-19T21:39:10.357Z,28.27
2023-08-19T21:41:41.145Z,27.95
2023-08-19T21:44:08.531Z,27.77
2023-08-19T21:46:35.854Z,27.65
2023-08-19T21:49:03.566Z,27.67
2023-08-19T21:51:30.897Z,27.78
2023-08-19T21:53:58.276Z,27.65
2023-08-19T21:56:25.749Z,27.65
2023-08-19T21:58:53.122Z,27.54
2023-08-19T22:01:20.409Z,27.37
2023-08-19T22:03:47.739Z,27.69
2023-08-19T22:06:15.129Z,28.02
2023-08-19T22:08:42.821Z,28.04
2023-08-19T22:11:10.129Z,27.98
2023-08-19T22:13:37.600Z,27.87
2023-08-19T22:16:05.202Z,27.81
2023-08-19T22:18:32.514Z,27.88
2023-08-19T22:21:00.818Z,27.72
2023-08-19T22:23:28.197Z,27.67
2023-08-19T22:25:55.589Z,27.53
2023-08-19T22:28:22.903Z,27.56
2023-08-19T22:30:50.295Z,27.66
2023-08-19T22:33:17.794Z,27.48
2023-08-19T22:35:45.245Z,27.39
2023-08-19T22:38:12.780Z,27.40
2023-08-19T22:40:42.059Z,27.40
2023-08-19T22:43:10.103Z,27.43
2023-08-19T22:45:37.532Z,27.38
2023-08-19T22:48:05.319Z,27.33
2023-08-19T22:50:32.778Z,27.31
2023-08-19T22:53:00.185Z,27.23
2023-08-19T22:55:27.608Z,27.13
2023-08-19T22:57:54.970Z,27.14
2023-08-19T23:00:22.364Z,27.13
2023-08-19T23:02:49.780Z,27.26
2023-08-19T23:05:17.213Z,27.33
2023-08-19T23:07:44.687Z,27.27
2023-08-19T23:10:12.234Z,27.13
2023-08-19T23:12:41.448Z,27.11
2023-08-19T23:15:09.180Z,27.00
2023-08-19T23:17:36.753Z,27.17
2023-08-19T23:20:05.442Z,27.02
2023-08-19T23:22:32.765Z,27.09
2023-08-19T23:25:00.136Z,27.05
2023-08-19T23:27:27.519Z,27.02
2023-08-19T23:29:54.983Z,27.04
2023-08-19T23:32:22.345Z,26.95
2023-08-19T23:34:49.814Z,26.89
2023-08-19T23:37:17.199Z,26.87
2023-08-19T23:39:44.604Z,26.86
2023-08-19T23:42:12.005Z,26.92
2023-08-19T23:44:39.388Z,26.87
2023-08-19T23:47:07.133Z,26.76
2023-08-19T23:49:34.729Z,26.73
2023-08-19T23:52:02.167Z,26.48
2023-08-19T23:54:29.880Z,26.59
2023-08-19T23:56:57.448Z,26.68
2023-08-19T23:59:26.882Z,26.60
